sensor_id;sensor_type;location;lat;lon;timestamp;P1;durP1;ratioP1;P2;durP2;ratioP2
46643;SDS011;32371;51.032;5.816;2023-12-22T00:00:29;9.30;;;1.40;;
46643;SDS011;32371;51.032;5.816;2023-12-22T00:02:54;4.35;;;1.23;;
46643;SDS011;32371;51.032;5.816;2023-12-22T00:05:19;10.45;;;1.42;;
46643;SDS011;32371;51.032;5.816;2023-12-22T00:07:45;10.82;;;1.77;;
46643;SDS011;32371;51.032;5.816;2023-12-22T00:10:11;4.55;;;1.20;;
46643;SDS011;32371;51.032;5.816;2023-12-22T00:12:36;5.05;;;1.08;;
46643;SDS011;32371;51.032;5.816;2023-12-22T00:15:04;14.35;;;1.73;;
46643;SDS011;32371;51.032;5.816;2023-12-22T00:17:30;6.07;;;1.55;;
46643;SDS011;32371;51.032;5.816;2023-12-22T00:19:55;10.48;;;1.85;;
46643;SDS011;32371;51.032;5.816;2023-12-22T00:22:24;11.77;;;1.50;;
46643;SDS011;32371;51.032;5.816;2023-12-22T00:24:50;12.00;;;1.48;;
46643;SDS011;32371;51.032;5.816;2023-12-22T00:27:15;9.90;;;1.52;;
46643;SDS011;32371;51.032;5.816;2023-12-22T00:29:40;16.35;;;1.60;;
46643;SDS011;32371;51.032;5.816;2023-12-22T00:32:06;4.63;;;0.98;;
46643;SDS011;32371;51.032;5.816;2023-12-22T00:34:34;6.10;;;2.15;;
46643;SDS011;32371;51.032;5.816;2023-12-22T00:36:59;11.52;;;1.67;;
46643;SDS011;32371;51.032;5.816;2023-12-22T00:39:25;4.82;;;1.50;;
46643;SDS011;32371;51.032;5.816;2023-12-22T00:41:50;6.70;;;1.15;;
46643;SDS011;32371;51.032;5.816;2023-12-22T00:44:16;14.55;;;2.10;;
46643;SDS011;32371;51.032;5.816;2023-12-22T00:46:41;7.78;;;1.45;;
46643;SDS011;32371;51.032;5.816;2023-12-22T00:49:07;6.60;;;1.55;;
46643;SDS011;32371;51.032;5.816;2023-12-22T00:51:32;10.60;;;1.65;;
46643;SDS011;32371;51.032;5.816;2023-12-22T00:53:57;8.40;;;1.40;;
46643;SDS011;32371;51.032;5.816;2023-12-22T00:56:23;11.23;;;1.10;;
46643;SDS011;32371;51.032;5.816;2023-12-22T00:58:48;15.23;;;1.55;;
46643;SDS011;32371;51.032;5.816;2023-12-22T01:01:14;9.95;;;1.92;;
46643;SDS011;32371;51.032;5.816;2023-12-22T01:03:39;11.88;;;1.83;;
46643;SDS011;32371;51.032;5.816;2023-12-22T01:06:05;5.60;;;1.42;;
46643;SDS011;32371;51.032;5.816;2023-12-22T01:08:30;11.23;;;2.00;;
46643;SDS011;32371;51.032;5.816;2023-12-22T01:10:55;12.07;;;2.45;;
46643;SDS011;32371;51.032;5.816;2023-12-22T01:13:21;18.63;;;2.17;;
46643;SDS011;32371;51.032;5.816;2023-12-22T01:15:46;7.40;;;1.50;;
46643;SDS011;32371;51.032;5.816;2023-12-22T01:18:12;7.25;;;1.10;;
46643;SDS011;32371;51.032;5.816;2023-12-22T01:20:37;8.52;;;1.17;;
46643;SDS011;32371;51.032;5.816;2023-12-22T01:23:03;5.18;;;1.33;;
46643;SDS011;32371;51.032;5.816;2023-12-22T01:25:28;4.95;;;1.35;;
46643;SDS011;32371;51.032;5.816;2023-12-22T01:27:54;6.63;;;1.83;;
46643;SDS011;32371;51.032;5.816;2023-12-22T01:30:19;5.03;;;1.48;;
46643;SDS011;32371;51.032;5.816;2023-12-22T01:32:44;6.80;;;1.45;;
46643;SDS011;32371;51.032;5.816;2023-12-22T01:35:10;6.20;;;1.40;;
46643;SDS011;32371;51.032;5.816;2023-12-22T01:37:36;7.82;;;1.08;;
46643;SDS011;32371;51.032;5.816;2023-12-22T01:40:02;16.67;;;1.88;;
46643;SDS011;32371;51.032;5.816;2023-12-22T01:42:29;6.10;;;1.42;;
46643;SDS011;32371;51.032;5.816;2023-12-22T01:44:54;11.95;;;2.45;;
46643;SDS011;32371;51.032;5.816;2023-12-22T01:47:21;3.45;;;0.70;;
46643;SDS011;32371;51.032;5.816;2023-12-22T01:49:47;7.80;;;1.48;;
46643;SDS011;32371;51.032;5.816;2023-12-22T01:52:13;4.57;;;1.00;;
46643;SDS011;32371;51.032;5.816;2023-12-22T01:54:38;8.15;;;1.38;;
46643;SDS011;32371;51.032;5.816;2023-12-22T01:57:03;6.85;;;1.65;;
46643;SDS011;32371;51.032;5.816;2023-12-22T01:59:29;6.68;;;2.10;;
46643;SDS011;32371;51.032;5.816;2023-12-22T02:01:59;6.35;;;1.33;;
46643;SDS011;32371;51.032;5.816;2023-12-22T02:04:25;9.10;;;1.02;;
46643;SDS011;32371;51.032;5.816;2023-12-22T02:06:51;10.38;;;1.40;;
46643;SDS011;32371;51.032;5.816;2023-12-22T02:09:17;8.30;;;1.85;;
46643;SDS011;32371;51.032;5.816;2023-12-22T02:11:43;13.20;;;2.28;;
46643;SDS011;32371;51.032;5.816;2023-12-22T02:14:08;7.35;;;2.05;;
46643;SDS011;32371;51.032;5.816;2023-12-22T02:16:46;10.63;;;1.98;;
46643;SDS011;32371;51.032;5.816;2023-12-22T02:24:28;6.20;;;1.52;;
46643;SDS011;32371;51.032;5.816;2023-12-22T02:26:56;6.05;;;1.55;;
46643;SDS011;32371;51.032;5.816;2023-12-22T02:29:37;6.60;;;1.40;;
46643;SDS011;32371;51.032;5.816;2023-12-22T02:32:14;6.32;;;1.10;;
46643;SDS011;32371;51.032;5.816;2023-12-22T02:34:45;5.82;;;1.58;;
46643;SDS011;32371;51.032;5.816;2023-12-22T02:37:12;11.13;;;1.48;;
46643;SDS011;32371;51.032;5.816;2023-12-22T02:39:38;6.55;;;1.33;;
46643;SDS011;32371;51.032;5.816;2023-12-22T02:42:04;6.95;;;2.03;;
46643;SDS011;32371;51.032;5.816;2023-12-22T02:44:31;6.25;;;0.90;;
46643;SDS011;32371;51.032;5.816;2023-12-22T02:46:56;7.70;;;1.40;;
46643;SDS011;32371;51.032;5.816;2023-12-22T02:49:22;9.82;;;0.95;;
46643;SDS011;32371;51.032;5.816;2023-12-22T02:51:47;3.03;;;1.20;;
46643;SDS011;32371;51.032;5.816;2023-12-22T02:54:13;6.82;;;1.10;;
46643;SDS011;32371;51.032;5.816;2023-12-22T02:56:39;10.93;;;1.40;;
46643;SDS011;32371;51.032;5.816;2023-12-22T02:59:04;11.68;;;2.47;;
46643;SDS011;32371;51.032;5.816;2023-12-22T03:01:29;4.20;;;1.02;;
46643;SDS011;32371;51.032;5.816;2023-12-22T03:03:55;5.88;;;0.90;;
46643;SDS011;32371;51.032;5.816;2023-12-22T03:06:20;6.75;;;1.00;;
46643;SDS011;32371;51.032;5.816;2023-12-22T03:08:45;8.85;;;1.20;;
46643;SDS011;32371;51.032;5.816;2023-12-22T03:11:11;8.80;;;1.33;;
46643;SDS011;32371;51.032;5.816;2023-12-22T03:13:36;3.67;;;1.25;;
46643;SDS011;32371;51.032;5.816;2023-12-22T03:16:01;10.80;;;1.48;;
46643;SDS011;32371;51.032;5.816;2023-12-22T03:18:27;4.20;;;0.85;;
46643;SDS011;32371;51.032;5.816;2023-12-22T03:20:52;3.60;;;0.80;;
46643;SDS011;32371;51.032;5.816;2023-12-22T03:23:18;6.32;;;1.17;;
46643;SDS011;32371;51.032;5.816;2023-12-22T03:25:43;2.33;;;0.93;;
46643;SDS011;32371;51.032;5.816;2023-12-22T03:28:08;12.73;;;1.60;;
46643;SDS011;32371;51.032;5.816;2023-12-22T03:30:35;6.35;;;1.33;;
46643;SDS011;32371;51.032;5.816;2023-12-22T03:33:03;5.63;;;0.88;;
46643;SDS011;32371;51.032;5.816;2023-12-22T03:35:28;6.28;;;0.95;;
46643;SDS011;32371;51.032;5.816;2023-12-22T03:37:53;6.60;;;1.00;;
46643;SDS011;32371;51.032;5.816;2023-12-22T03:40:20;7.15;;;1.10;;
46643;SDS011;32371;51.032;5.816;2023-12-22T03:42:45;5.95;;;0.90;;
46643;SDS011;32371;51.032;5.816;2023-12-22T03:45:11;13.48;;;1.33;;
46643;SDS011;32371;51.032;5.816;2023-12-22T03:47:37;5.22;;;1.13;;
46643;SDS011;32371;51.032;5.816;2023-12-22T03:50:03;8.40;;;1.30;;
46643;SDS011;32371;51.032;5.816;2023-12-22T03:52:29;6.57;;;1.85;;
46643;SDS011;32371;51.032;5.816;2023-12-22T03:54:54;13.48;;;1.15;;
46643;SDS011;32371;51.032;5.816;2023-12-22T03:57:20;11.80;;;2.50;;
46643;SDS011;32371;51.032;5.816;2023-12-22T03:59:45;9.90;;;2.97;;
46643;SDS011;32371;51.032;5.816;2023-12-22T04:02:11;9.95;;;1.40;;
46643;SDS011;32371;51.032;5.816;2023-12-22T04:04:39;6.07;;;1.50;;
46643;SDS011;32371;51.032;5.816;2023-12-22T04:07:05;9.88;;;1.73;;
46643;SDS011;32371;51.032;5.816;2023-12-22T04:09:30;3.53;;;1.23;;
46643;SDS011;32371;51.032;5.816;2023-12-22T04:11:55;8.30;;;1.45;;
46643;SDS011;32371;51.032;5.816;2023-12-22T04:14:21;6.80;;;2.05;;
46643;SDS011;32371;51.032;5.816;2023-12-22T04:16:47;11.65;;;2.47;;
46643;SDS011;32371;51.032;5.816;2023-12-22T04:19:12;10.90;;;1.95;;
46643;SDS011;32371;51.032;5.816;2023-12-22T04:21:38;5.65;;;1.45;;
46643;SDS011;32371;51.032;5.816;2023-12-22T04:24:04;10.95;;;1.98;;
46643;SDS011;32371;51.032;5.816;2023-12-22T04:26:31;5.50;;;1.85;;
46643;SDS011;32371;51.032;5.816;2023-12-22T04:28:58;8.68;;;1.55;;
46643;SDS011;32371;51.032;5.816;2023-12-22T04:31:23;12.60;;;2.75;;
46643;SDS011;32371;51.032;5.816;2023-12-22T04:33:48;18.70;;;2.25;;
46643;SDS011;32371;51.032;5.816;2023-12-22T04:36:14;10.18;;;2.15;;
46643;SDS011;32371;51.032;5.816;2023-12-22T04:38:39;8.27;;;1.50;;
46643;SDS011;32371;51.032;5.816;2023-12-22T04:41:06;8.60;;;1.60;;
46643;SDS011;32371;51.032;5.816;2023-12-22T04:43:31;14.43;;;1.33;;
46643;SDS011;32371;51.032;5.816;2023-12-22T04:45:56;9.70;;;1.20;;
46643;SDS011;32371;51.032;5.816;2023-12-22T04:48:22;16.02;;;1.75;;
46643;SDS011;32371;51.032;5.816;2023-12-22T04:50:47;13.50;;;2.25;;
46643;SDS011;32371;51.032;5.816;2023-12-22T04:53:12;6.78;;;1.33;;
46643;SDS011;32371;51.032;5.816;2023-12-22T04:55:38;11.20;;;1.83;;
46643;SDS011;32371;51.032;5.816;2023-12-22T04:58:04;10.25;;;1.58;;
46643;SDS011;32371;51.032;5.816;2023-12-22T05:00:29;14.95;;;1.73;;
46643;SDS011;32371;51.032;5.816;2023-12-22T05:02:54;12.15;;;1.33;;
46643;SDS011;32371;51.032;5.816;2023-12-22T05:05:20;9.52;;;1.88;;
46643;SDS011;32371;51.032;5.816;2023-12-22T05:07:46;4.47;;;0.70;;
46643;SDS011;32371;51.032;5.816;2023-12-22T05:10:11;10.40;;;1.60;;
46643;SDS011;32371;51.032;5.816;2023-12-22T05:12:37;9.57;;;1.85;;
46643;SDS011;32371;51.032;5.816;2023-12-22T05:15:03;8.20;;;1.50;;
46643;SDS011;32371;51.032;5.816;2023-12-22T05:17:29;9.40;;;1.75;;
46643;SDS011;32371;51.032;5.816;2023-12-22T05:19:54;7.28;;;1.90;;
46643;SDS011;32371;51.032;5.816;2023-12-22T05:22:19;6.10;;;1.13;;
46643;SDS011;32371;51.032;5.816;2023-12-22T05:24:45;7.63;;;1.30;;
46643;SDS011;32371;51.032;5.816;2023-12-22T05:27:11;8.85;;;1.80;;
46643;SDS011;32371;51.032;5.816;2023-12-22T05:29:36;9.73;;;2.10;;
46643;SDS011;32371;51.032;5.816;2023-12-22T05:32:01;17.75;;;1.95;;
46643;SDS011;32371;51.032;5.816;2023-12-22T05:34:27;16.35;;;2.42;;
46643;SDS011;32371;51.032;5.816;2023-12-22T05:36:53;12.52;;;2.60;;
46643;SDS011;32371;51.032;5.816;2023-12-22T05:39:19;9.73;;;2.90;;
46643;SDS011;32371;51.032;5.816;2023-12-22T05:41:45;16.05;;;2.63;;
46643;SDS011;32371;51.032;5.816;2023-12-22T05:44:10;13.77;;;2.35;;
46643;SDS011;32371;51.032;5.816;2023-12-22T05:46:39;12.25;;;2.75;;
46643;SDS011;32371;51.032;5.816;2023-12-22T05:49:04;14.68;;;2.47;;
46643;SDS011;32371;51.032;5.816;2023-12-22T05:51:35;19.45;;;2.42;;
46643;SDS011;32371;51.032;5.816;2023-12-22T05:54:04;9.48;;;1.42;;
46643;SDS011;32371;51.032;5.816;2023-12-22T05:56:30;19.13;;;2.47;;
46643;SDS011;32371;51.032;5.816;2023-12-22T05:58:55;14.05;;;2.13;;
46643;SDS011;32371;51.032;5.816;2023-12-22T06:01:21;13.30;;;2.00;;
46643;SDS011;32371;51.032;5.816;2023-12-22T06:03:46;11.70;;;3.10;;
46643;SDS011;32371;51.032;5.816;2023-12-22T06:06:12;11.52;;;2.30;;
46643;SDS011;32371;51.032;5.816;2023-12-22T06:08:37;13.68;;;3.45;;
46643;SDS011;32371;51.032;5.816;2023-12-22T06:11:03;13.82;;;2.60;;
46643;SDS011;32371;51.032;5.816;2023-12-22T06:13:29;9.35;;;2.03;;
46643;SDS011;32371;51.032;5.816;2023-12-22T06:15:54;13.27;;;3.25;;
46643;SDS011;32371;51.032;5.816;2023-12-22T06:18:20;9.07;;;1.65;;
46643;SDS011;32371;51.032;5.816;2023-12-22T06:20:46;12.68;;;2.22;;
46643;SDS011;32371;51.032;5.816;2023-12-22T06:23:13;21.08;;;2.78;;
46643;SDS011;32371;51.032;5.816;2023-12-22T06:25:38;14.23;;;2.78;;
46643;SDS011;32371;51.032;5.816;2023-12-22T06:28:04;13.15;;;2.40;;
46643;SDS011;32371;51.032;5.816;2023-12-22T06:30:29;14.43;;;3.17;;
46643;SDS011;32371;51.032;5.816;2023-12-22T06:32:56;19.25;;;2.60;;
46643;SDS011;32371;51.032;5.816;2023-12-22T06:35:22;22.80;;;3.70;;
46643;SDS011;32371;51.032;5.816;2023-12-22T06:37:49;21.42;;;2.78;;
46643;SDS011;32371;51.032;5.816;2023-12-22T06:40:15;20.35;;;2.97;;
46643;SDS011;32371;51.032;5.816;2023-12-22T06:42:44;16.90;;;3.38;;
46643;SDS011;32371;51.032;5.816;2023-12-22T06:45:09;19.25;;;3.20;;
46643;SDS011;32371;51.032;5.816;2023-12-22T06:47:37;20.58;;;2.63;;
46643;SDS011;32371;51.032;5.816;2023-12-22T06:50:02;12.02;;;3.40;;
46643;SDS011;32371;51.032;5.816;2023-12-22T06:52:28;16.20;;;2.65;;
46643;SDS011;32371;51.032;5.816;2023-12-22T06:54:55;18.75;;;3.10;;
46643;SDS011;32371;51.032;5.816;2023-12-22T06:57:21;27.50;;;3.00;;
46643;SDS011;32371;51.032;5.816;2023-12-22T06:59:46;13.50;;;2.97;;
46643;SDS011;32371;51.032;5.816;2023-12-22T07:02:13;21.42;;;3.88;;
46643;SDS011;32371;51.032;5.816;2023-12-22T07:04:39;11.27;;;2.90;;
46643;SDS011;32371;51.032;5.816;2023-12-22T07:07:04;14.27;;;3.30;;
46643;SDS011;32371;51.032;5.816;2023-12-22T07:09:30;17.92;;;3.88;;
46643;SDS011;32371;51.032;5.816;2023-12-22T07:11:55;19.92;;;2.75;;
46643;SDS011;32371;51.032;5.816;2023-12-22T07:14:21;13.63;;;2.58;;
46643;SDS011;32371;51.032;5.816;2023-12-22T07:16:47;20.77;;;2.70;;
46643;SDS011;32371;51.032;5.816;2023-12-22T07:19:12;13.80;;;2.47;;
46643;SDS011;32371;51.032;5.816;2023-12-22T07:21:38;28.30;;;3.70;;
46643;SDS011;32371;51.032;5.816;2023-12-22T07:24:04;24.33;;;3.78;;
46643;SDS011;32371;51.032;5.816;2023-12-22T07:26:30;17.80;;;3.30;;
46643;SDS011;32371;51.032;5.816;2023-12-22T07:28:56;13.15;;;3.08;;
46643;SDS011;32371;51.032;5.816;2023-12-22T07:31:21;17.45;;;3.13;;
46643;SDS011;32371;51.032;5.816;2023-12-22T07:33:47;18.23;;;3.80;;
46643;SDS011;32371;51.032;5.816;2023-12-22T07:36:12;16.48;;;3.33;;
46643;SDS011;32371;51.032;5.816;2023-12-22T07:38:38;14.68;;;3.20;;
46643;SDS011;32371;51.032;5.816;2023-12-22T07:41:06;13.93;;;3.28;;
46643;SDS011;32371;51.032;5.816;2023-12-22T07:43:32;19.95;;;2.97;;
46643;SDS011;32371;51.032;5.816;2023-12-22T07:45:57;14.63;;;2.33;;
46643;SDS011;32371;51.032;5.816;2023-12-22T07:48:23;14.02;;;2.63;;
46643;SDS011;32371;51.032;5.816;2023-12-22T07:50:49;17.63;;;2.63;;
46643;SDS011;32371;51.032;5.816;2023-12-22T07:53:14;19.85;;;3.78;;
46643;SDS011;32371;51.032;5.816;2023-12-22T07:55:39;12.70;;;2.92;;
46643;SDS011;32371;51.032;5.816;2023-12-22T07:58:05;15.75;;;2.70;;
46643;SDS011;32371;51.032;5.816;2023-12-22T08:00:31;20.27;;;3.55;;
46643;SDS011;32371;51.032;5.816;2023-12-22T08:02:57;18.10;;;2.67;;
46643;SDS011;32371;51.032;5.816;2023-12-22T08:05:22;26.38;;;3.13;;
46643;SDS011;32371;51.032;5.816;2023-12-22T08:07:48;18.15;;;3.30;;
46643;SDS011;32371;51.032;5.816;2023-12-22T08:10:13;20.65;;;3.03;;
46643;SDS011;32371;51.032;5.816;2023-12-22T08:12:38;12.85;;;2.85;;
46643;SDS011;32371;51.032;5.816;2023-12-22T08:15:04;14.68;;;2.75;;
46643;SDS011;32371;51.032;5.816;2023-12-22T08:17:30;16.58;;;3.47;;
46643;SDS011;32371;51.032;5.816;2023-12-22T08:19:56;17.58;;;2.60;;
46643;SDS011;32371;51.032;5.816;2023-12-22T08:22:22;21.92;;;2.75;;
46643;SDS011;32371;51.032;5.816;2023-12-22T08:24:47;9.77;;;2.90;;
46643;SDS011;32371;51.032;5.816;2023-12-22T08:27:13;21.05;;;3.20;;
46643;SDS011;32371;51.032;5.816;2023-12-22T08:29:38;21.02;;;2.80;;
46643;SDS011;32371;51.032;5.816;2023-12-22T08:32:04;13.32;;;2.17;;
46643;SDS011;32371;51.032;5.816;2023-12-22T08:34:29;20.80;;;3.35;;
46643;SDS011;32371;51.032;5.816;2023-12-22T08:36:54;13.02;;;2.17;;
46643;SDS011;32371;51.032;5.816;2023-12-22T08:39:20;13.43;;;2.10;;
46643;SDS011;32371;51.032;5.816;2023-12-22T08:41:46;9.10;;;3.30;;
46643;SDS011;32371;51.032;5.816;2023-12-22T08:44:12;12.15;;;2.40;;
46643;SDS011;32371;51.032;5.816;2023-12-22T08:46:41;31.23;;;8.40;;
46643;SDS011;32371;51.032;5.816;2023-12-22T08:49:06;16.00;;;5.00;;
46643;SDS011;32371;51.032;5.816;2023-12-22T08:51:32;16.48;;;4.55;;
46643;SDS011;32371;51.032;5.816;2023-12-22T08:53:59;24.88;;;4.70;;
46643;SDS011;32371;51.032;5.816;2023-12-22T08:56:25;23.48;;;6.68;;
46643;SDS011;32371;51.032;5.816;2023-12-22T08:58:54;11.73;;;3.47;;
46643;SDS011;32371;51.032;5.816;2023-12-22T09:01:24;21.55;;;4.95;;
46643;SDS011;32371;51.032;5.816;2023-12-22T09:03:50;31.70;;;7.72;;
46643;SDS011;32371;51.032;5.816;2023-12-22T09:06:15;17.77;;;6.10;;
46643;SDS011;32371;51.032;5.816;2023-12-22T09:08:41;11.18;;;2.55;;
46643;SDS011;32371;51.032;5.816;2023-12-22T09:11:07;5.93;;;2.30;;
46643;SDS011;32371;51.032;5.816;2023-12-22T09:13:33;11.80;;;3.20;;
46643;SDS011;32371;51.032;5.816;2023-12-22T09:16:00;8.00;;;2.42;;
46643;SDS011;32371;51.032;5.816;2023-12-22T09:18:26;6.93;;;2.17;;
46643;SDS011;32371;51.032;5.816;2023-12-22T09:20:51;5.03;;;1.33;;
46643;SDS011;32371;51.032;5.816;2023-12-22T09:23:16;10.82;;;1.60;;
46643;SDS011;32371;51.032;5.816;2023-12-22T09:25:42;5.80;;;1.35;;
46643;SDS011;32371;51.032;5.816;2023-12-22T09:28:07;4.93;;;1.60;;
46643;SDS011;32371;51.032;5.816;2023-12-22T09:30:32;3.85;;;1.35;;
46643;SDS011;32371;51.032;5.816;2023-12-22T09:32:58;2.75;;;1.40;;
46643;SDS011;32371;51.032;5.816;2023-12-22T09:35:24;8.55;;;1.27;;
46643;SDS011;32371;51.032;5.816;2023-12-22T09:37:51;5.68;;;1.02;;
46643;SDS011;32371;51.032;5.816;2023-12-22T09:40:17;7.07;;;1.35;;
46643;SDS011;32371;51.032;5.816;2023-12-22T09:42:42;3.72;;;1.17;;
46643;SDS011;32371;51.032;5.816;2023-12-22T09:45:10;5.45;;;1.23;;
46643;SDS011;32371;51.032;5.816;2023-12-22T09:47:37;5.18;;;1.48;;
46643;SDS011;32371;51.032;5.816;2023-12-22T09:50:02;6.70;;;2.53;;
46643;SDS011;32371;51.032;5.816;2023-12-22T09:52:30;4.32;;;1.30;;
46643;SDS011;32371;51.032;5.816;2023-12-22T09:54:57;5.25;;;1.05;;
46643;SDS011;32371;51.032;5.816;2023-12-22T09:57:23;3.50;;;0.95;;
46643;SDS011;32371;51.032;5.816;2023-12-22T09:59:49;4.63;;;0.95;;
46643;SDS011;32371;51.032;5.816;2023-12-22T10:02:17;3.60;;;0.88;;
46643;SDS011;32371;51.032;5.816;2023-12-22T10:04:42;2.38;;;0.70;;
46643;SDS011;32371;51.032;5.816;2023-12-22T10:07:07;3.95;;;1.55;;
46643;SDS011;32371;51.032;5.816;2023-12-22T10:09:35;4.13;;;0.80;;
46643;SDS011;32371;51.032;5.816;2023-12-22T10:12:01;1.90;;;0.95;;
46643;SDS011;32371;51.032;5.816;2023-12-22T10:14:28;1.58;;;0.80;;
46643;SDS011;32371;51.032;5.816;2023-12-22T10:16:54;2.38;;;0.85;;
46643;SDS011;32371;51.032;5.816;2023-12-22T10:19:21;1.05;;;0.95;;
46643;SDS011;32371;51.032;5.816;2023-12-22T10:21:48;2.78;;;0.70;;
46643;SDS011;32371;51.032;5.816;2023-12-22T10:27:04;1.88;;;0.98;;
46643;SDS011;32371;51.032;5.816;2023-12-22T10:29:30;1.88;;;0.70;;
46643;SDS011;32371;51.032;5.816;2023-12-22T10:31:57;1.20;;;0.95;;
46643;SDS011;32371;51.032;5.816;2023-12-22T10:34:22;4.43;;;0.98;;
46643;SDS011;32371;51.032;5.816;2023-12-22T10:36:48;0.73;;;0.68;;
46643;SDS011;32371;51.032;5.816;2023-12-22T10:39:14;1.55;;;0.60;;
46643;SDS011;32371;51.032;5.816;2023-12-22T10:41:40;1.20;;;0.82;;
46643;SDS011;32371;51.032;5.816;2023-12-22T10:44:05;0.55;;;0.47;;
46643;SDS011;32371;51.032;5.816;2023-12-22T10:46:31;1.98;;;0.80;;
46643;SDS011;32371;51.032;5.816;2023-12-22T10:48:58;0.82;;;0.57;;
46643;SDS011;32371;51.032;5.816;2023-12-22T10:51:24;2.72;;;0.60;;
46643;SDS011;32371;51.032;5.816;2023-12-22T10:53:51;3.47;;;0.60;;
46643;SDS011;32371;51.032;5.816;2023-12-22T10:56:16;1.33;;;0.50;;
46643;SDS011;32371;51.032;5.816;2023-12-22T10:58:42;3.80;;;0.50;;
46643;SDS011;32371;51.032;5.816;2023-12-22T11:01:07;1.75;;;0.63;;
46643;SDS011;32371;51.032;5.816;2023-12-22T11:03:34;1.92;;;0.77;;
46643;SDS011;32371;51.032;5.816;2023-12-22T11:06:04;0.65;;;0.50;;
46643;SDS011;32371;51.032;5.816;2023-12-22T11:08:31;2.15;;;1.15;;
46643;SDS011;32371;51.032;5.816;2023-12-22T11:10:59;0.75;;;0.50;;
46643;SDS011;32371;51.032;5.816;2023-12-22T11:13:32;3.70;;;0.63;;
46643;SDS011;32371;51.032;5.816;2023-12-22T11:15:58;4.22;;;0.77;;
46643;SDS011;32371;51.032;5.816;2023-12-22T11:18:24;0.90;;;0.70;;
46643;SDS011;32371;51.032;5.816;2023-12-22T11:20:50;2.20;;;0.40;;
46643;SDS011;32371;51.032;5.816;2023-12-22T11:23:17;0.82;;;0.65;;
46643;SDS011;32371;51.032;5.816;2023-12-22T11:25:43;1.13;;;0.70;;
46643;SDS011;32371;51.032;5.816;2023-12-22T11:28:09;1.58;;;0.85;;
46643;SDS011;32371;51.032;5.816;2023-12-22T11:30:36;0.68;;;0.52;;
46643;SDS011;32371;51.032;5.816;2023-12-22T11:33:02;2.65;;;0.52;;
46643;SDS011;32371;51.032;5.816;2023-12-22T11:35:28;3.28;;;0.60;;
46643;SDS011;32371;51.032;5.816;2023-12-22T11:37:53;3.97;;;0.70;;
46643;SDS011;32371;51.032;5.816;2023-12-22T11:40:20;3.33;;;0.75;;
46643;SDS011;32371;51.032;5.816;2023-12-22T11:42:47;2.83;;;0.60;;
46643;SDS011;32371;51.032;5.816;2023-12-22T11:45:14;3.92;;;0.90;;
46643;SDS011;32371;51.032;5.816;2023-12-22T11:47:41;3.30;;;1.15;;
46643;SDS011;32371;51.032;5.816;2023-12-22T11:50:10;1.58;;;0.55;;
46643;SDS011;32371;51.032;5.816;2023-12-22T11:52:36;2.00;;;0.90;;
46643;SDS011;32371;51.032;5.816;2023-12-22T11:55:01;3.83;;;0.88;;
46643;SDS011;32371;51.032;5.816;2023-12-22T12:00:02;3.33;;;1.00;;
46643;SDS011;32371;51.032;5.816;2023-12-22T12:02:33;8.85;;;1.13;;
46643;SDS011;32371;51.032;5.816;2023-12-22T12:05:00;2.20;;;1.00;;
46643;SDS011;32371;51.032;5.816;2023-12-22T12:10:09;4.70;;;0.95;;
46643;SDS011;32371;51.032;5.816;2023-12-22T12:12:36;2.08;;;0.90;;
46643;SDS011;32371;51.032;5.816;2023-12-22T12:15:06;6.28;;;0.85;;
46643;SDS011;32371;51.032;5.816;2023-12-22T12:17:33;2.70;;;0.75;;
46643;SDS011;32371;51.032;5.816;2023-12-22T12:19:58;3.75;;;0.52;;
46643;SDS011;32371;51.032;5.816;2023-12-22T12:22:24;0.73;;;0.32;;
46643;SDS011;32371;51.032;5.816;2023-12-22T12:24:51;5.50;;;0.57;;
46643;SDS011;32371;51.032;5.816;2023-12-22T12:27:17;1.40;;;0.60;;
46643;SDS011;32371;51.032;5.816;2023-12-22T12:29:49;7.43;;;0.80;;
46643;SDS011;32371;51.032;5.816;2023-12-22T12:32:14;2.50;;;0.63;;
46643;SDS011;32371;51.032;5.816;2023-12-22T12:34:43;8.60;;;1.30;;
46643;SDS011;32371;51.032;5.816;2023-12-22T12:37:08;2.92;;;0.70;;
46643;SDS011;32371;51.032;5.816;2023-12-22T12:39:34;1.80;;;0.50;;
46643;SDS011;32371;51.032;5.816;2023-12-22T12:42:00;0.80;;;0.40;;
46643;SDS011;32371;51.032;5.816;2023-12-22T12:44:29;0.82;;;0.35;;
46643;SDS011;32371;51.032;5.816;2023-12-22T12:46:54;2.05;;;0.60;;
46643;SDS011;32371;51.032;5.816;2023-12-22T12:49:20;6.07;;;1.60;;
46643;SDS011;32371;51.032;5.816;2023-12-22T12:51:46;8.90;;;1.23;;
46643;SDS011;32371;51.032;5.816;2023-12-22T12:54:13;5.18;;;1.73;;
46643;SDS011;32371;51.032;5.816;2023-12-22T12:56:40;3.53;;;0.95;;
46643;SDS011;32371;51.032;5.816;2023-12-22T12:59:09;5.43;;;1.23;;
46643;SDS011;32371;51.032;5.816;2023-12-22T13:01:39;4.88;;;1.10;;
46643;SDS011;32371;51.032;5.816;2023-12-22T13:04:06;1.88;;;0.80;;
46643;SDS011;32371;51.032;5.816;2023-12-22T13:06:32;1.23;;;0.60;;
46643;SDS011;32371;51.032;5.816;2023-12-22T13:08:57;4.05;;;0.50;;
46643;SDS011;32371;51.032;5.816;2023-12-22T13:11:23;4.38;;;0.40;;
46643;SDS011;32371;51.032;5.816;2023-12-22T13:13:50;5.55;;;0.80;;
46643;SDS011;32371;51.032;5.816;2023-12-22T13:16:20;2.22;;;0.90;;
46643;SDS011;32371;51.032;5.816;2023-12-22T13:18:48;4.50;;;1.48;;
46643;SDS011;32371;51.032;5.816;2023-12-22T13:21:13;7.00;;;0.65;;
46643;SDS011;32371;51.032;5.816;2023-12-22T13:23:40;3.83;;;0.95;;
46643;SDS011;32371;51.032;5.816;2023-12-22T13:26:05;3.13;;;0.82;;
46643;SDS011;32371;51.032;5.816;2023-12-22T13:28:31;4.32;;;0.68;;
46643;SDS011;32371;51.032;5.816;2023-12-22T13:30:56;2.25;;;0.47;;
46643;SDS011;32371;51.032;5.816;2023-12-22T13:33:22;6.03;;;0.70;;
46643;SDS011;32371;51.032;5.816;2023-12-22T13:35:49;1.60;;;0.75;;
46643;SDS011;32371;51.032;5.816;2023-12-22T13:38:16;6.43;;;0.70;;
46643;SDS011;32371;51.032;5.816;2023-12-22T13:40:44;4.90;;;1.13;;
46643;SDS011;32371;51.032;5.816;2023-12-22T13:43:11;1.70;;;0.60;;
46643;SDS011;32371;51.032;5.816;2023-12-22T13:45:36;6.65;;;0.57;;
46643;SDS011;32371;51.032;5.816;2023-12-22T13:48:03;4.00;;;0.63;;
46643;SDS011;32371;51.032;5.816;2023-12-22T13:50:29;1.02;;;0.47;;
46643;SDS011;32371;51.032;5.816;2023-12-22T13:52:54;2.08;;;0.60;;
46643;SDS011;32371;51.032;5.816;2023-12-22T13:55:20;2.35;;;0.82;;
46643;SDS011;32371;51.032;5.816;2023-12-22T13:57:47;7.00;;;0.63;;
46643;SDS011;32371;51.032;5.816;2023-12-22T14:02:41;3.50;;;0.38;;
46643;SDS011;32371;51.032;5.816;2023-12-22T14:05:07;4.78;;;0.40;;
46643;SDS011;32371;51.032;5.816;2023-12-22T14:07:32;4.35;;;0.63;;
46643;SDS011;32371;51.032;5.816;2023-12-22T14:10:04;0.88;;;0.52;;
46643;SDS011;32371;51.032;5.816;2023-12-22T14:12:30;1.98;;;0.50;;
46643;SDS011;32371;51.032;5.816;2023-12-22T14:14:55;1.08;;;0.50;;
46643;SDS011;32371;51.032;5.816;2023-12-22T14:17:21;1.60;;;0.57;;
46643;SDS011;32371;51.032;5.816;2023-12-22T14:19:47;5.60;;;0.68;;
46643;SDS011;32371;51.032;5.816;2023-12-22T14:22:14;4.70;;;0.80;;
46643;SDS011;32371;51.032;5.816;2023-12-22T14:24:40;2.13;;;0.43;;
46643;SDS011;32371;51.032;5.816;2023-12-22T14:27:05;2.20;;;0.40;;
46643;SDS011;32371;51.032;5.816;2023-12-22T14:29:30;3.97;;;1.60;;
46643;SDS011;32371;51.032;5.816;2023-12-22T14:31:56;5.72;;;1.08;;
46643;SDS011;32371;51.032;5.816;2023-12-22T14:34:21;1.38;;;0.60;;
46643;SDS011;32371;51.032;5.816;2023-12-22T14:36:47;5.00;;;0.73;;
46643;SDS011;32371;51.032;5.816;2023-12-22T14:39:12;1.52;;;0.60;;
46643;SDS011;32371;51.032;5.816;2023-12-22T14:41:38;5.25;;;0.77;;
46643;SDS011;32371;51.032;5.816;2023-12-22T14:44:04;1.65;;;0.52;;
46643;SDS011;32371;51.032;5.816;2023-12-22T14:46:30;3.55;;;0.47;;
46643;SDS011;32371;51.032;5.816;2023-12-22T14:48:55;5.95;;;1.30;;
46643;SDS011;32371;51.032;5.816;2023-12-22T14:51:21;1.55;;;0.52;;